createdAt,value
2018-05-26T00:00:57.633Z,101692.55
2018-05-26T00:03:23.493Z,101694.72
2018-05-26T00:05:49.353Z,101694.59
2018-05-26T00:08:15.173Z,101699.81
2018-05-26T00:10:40.989Z,101700.53
2018-05-26T00:13:06.849Z,101708.84
2018-05-26T00:15:32.677Z,101705.25
2018-05-26T00:17:58.493Z,101705.77
2018-05-26T00:20:24.317Z,101708.34
2018-05-26T00:22:56.321Z,101708.05
2018-05-26T00:25:22.150Z,101704.00
2018-05-26T00:27:47.958Z,101701.13
2018-05-26T00:30:13.781Z,101703.59
2018-05-26T00:32:39.601Z,101706.44
2018-05-26T00:35:05.461Z,101700.94
2018-05-26T00:37:31.377Z,101702.94
2018-05-26T00:39:57.270Z,101699.30
2018-05-26T00:42:23.094Z,101692.78
2018-05-26T00:44:48.913Z,101691.37
2018-05-26T00:47:14.785Z,101688.29
2018-05-26T00:49:40.604Z,101685.58
2018-05-26T00:52:06.501Z,101686.77
2018-05-26T00:54:32.366Z,101690.11
2018-05-26T00:56:58.222Z,101685.23
2018-05-26T00:59:24.081Z,101692.19
2018-05-26T01:01:49.901Z,101696.45
2018-05-26T01:04:15.722Z,101693.72
2018-05-26T01:06:41.575Z,101698.83
2018-05-26T01:09:07.386Z,101693.11
2018-05-26T01:11:33.211Z,101694.64
2018-05-26T01:13:59.371Z,101693.69
2018-05-26T01:16:25.210Z,101697.65
2018-05-26T01:18:51.065Z,101691.98
2018-05-26T01:21:16.881Z,101693.67
2018-05-26T01:23:42.767Z,101693.67
2018-05-26T01:26:08.581Z,101690.19
2018-05-26T01:28:34.413Z,101686.74
2018-05-26T01:31:00.220Z,101681.11
2018-05-26T01:33:26.034Z,101684.52
2018-05-26T01:35:51.889Z,101684.03
2018-05-26T01:38:17.704Z,101681.73
2018-05-26T01:40:43.518Z,101681.09
2018-05-26T01:43:09.331Z,101679.77
2018-05-26T01:45:35.187Z,101679.02
2018-05-26T01:48:01.001Z,101680.95
2018-05-26T01:50:26.862Z,101677.40
2018-05-26T01:52:52.686Z,101679.91
2018-05-26T01:55:18.496Z,101679.20
2018-05-26T01:57:44.344Z,101683.89
2018-05-26T02:00:10.160Z,101681.63
2018-05-26T02:02:36.009Z,101674.15
2018-05-26T02:05:01.826Z,101678.00
2018-05-26T02:07:27.641Z,101673.25
2018-05-26T02:09:53.452Z,101678.21
2018-05-26T02:12:19.345Z,101684.35
2018-05-26T02:14:45.265Z,101681.22
2018-05-26T02:17:11.072Z,101685.39
2018-05-26T02:19:36.896Z,101687.08
2018-05-26T02:22:02.709Z,101680.57
2018-05-26T02:24:28.529Z,101681.97
2018-05-26T02:26:54.362Z,101679.65
2018-05-26T02:29:20.214Z,101679.62
2018-05-26T02:31:46.022Z,101680.39
2018-05-26T02:34:11.833Z,101679.27
2018-05-26T02:36:37.644Z,101675.14
2018-05-26T02:39:03.596Z,101686.23
2018-05-26T02:41:29.454Z,101678.72
2018-05-26T02:43:55.337Z,101687.05
2018-05-26T02:46:22.150Z,101686.94
2018-05-26T02:48:47.968Z,101683.44
2018-05-26T02:51:13.845Z,101693.34
2018-05-26T02:53:39.739Z,101696.34
2018-05-26T02:56:05.587Z,101695.22
2018-05-26T02:58:31.444Z,101694.02
2018-05-26T03:00:57.302Z,101696.57
2018-05-26T03:03:23.152Z,101697.05
2018-05-26T03:05:56.110Z,101691.32
2018-05-26T03:08:28.001Z,101695.68
2018-05-26T03:11:00.073Z,101695.47
2018-05-26T03:13:32.113Z,101695.55
2018-05-26T03:19:00.234Z,101697.30
2018-05-26T03:21:26.048Z,101698.78
2018-05-26T03:23:51.853Z,101692.23
2018-05-26T03:26:17.667Z,101700.38
2018-05-26T03:28:43.523Z,101700.58
2018-05-26T03:31:09.312Z,101706.58
2018-05-26T03:33:35.124Z,101710.61
2018-05-26T03:36:00.971Z,101708.27
2018-05-26T03:38:26.780Z,101716.46
2018-05-26T03:40:52.632Z,101719.68
2018-05-26T03:43:18.444Z,101714.89
2018-05-26T03:45:44.296Z,101714.05
2018-05-26T03:48:10.106Z,101711.03
2018-05-26T03:50:35.957Z,101712.66
2018-05-26T03:53:01.812Z,101713.14
2018-05-26T03:55:33.853Z,101710.73
2018-05-26T03:58:05.984Z,101715.77
2018-05-26T04:00:31.836Z,101719.95
2018-05-26T04:02:57.681Z,101721.64
2018-05-26T04:05:23.485Z,101723.39
2018-05-26T04:07:49.297Z,101719.53
2018-05-26T04:10:15.104Z,101722.06
2018-05-26T04:12:40.914Z,101729.95
2018-05-26T04:15:06.720Z,101730.52
2018-05-26T04:17:33.416Z,101735.67
2018-05-26T04:19:59.220Z,101738.87
2018-05-26T04:22:25.033Z,101736.58
2018-05-26T04:24:50.846Z,101742.12
2018-05-26T04:27:16.656Z,101743.41
2018-05-26T04:29:42.505Z,101746.60
2018-05-26T04:32:08.315Z,101750.47
2018-05-26T04:34:34.169Z,101749.52
2018-05-26T04:36:59.980Z,101749.23
2018-05-26T04:39:25.800Z,101751.48
2018-05-26T04:41:52.572Z,101753.23
2018-05-26T04:44:18.377Z,101758.59
2018-05-26T04:46:44.191Z,101756.84
2018-05-26T04:49:10.001Z,101760.00
2018-05-26T04:51:35.818Z,101769.98
2018-05-26T04:54:01.627Z,101778.92
2018-05-26T04:56:27.544Z,101771.30
2018-05-26T04:58:53.351Z,101767.27
2018-05-26T05:01:19.167Z,101768.73
2018-05-26T05:03:44.976Z,101768.16
2018-05-26T05:06:10.833Z,101776.76
2018-05-26T05:08:36.689Z,101774.83
2018-05-26T05:11:02.505Z,101775.06
2018-05-26T05:13:28.361Z,101783.11
2018-05-26T05:15:54.169Z,101788.05
2018-05-26T05:18:20.024Z,101783.03
2018-05-26T05:20:45.837Z,101779.13
2018-05-26T05:23:11.643Z,101781.42
2018-05-26T05:25:37.457Z,101780.34
2018-05-26T05:28:03.268Z,101788.92
2018-05-26T05:30:29.081Z,101785.55
2018-05-26T05:32:54.897Z,101786.25
2018-05-26T05:35:20.710Z,101790.59
2018-05-26T05:37:46.541Z,101792.61
2018-05-26T05:40:12.354Z,101795.67
2018-05-26T05:42:38.161Z,101800.77
2018-05-26T05:45:03.977Z,101797.40
2018-05-26T05:47:29.790Z,101800.16
2018-05-26T05:49:55.600Z,101797.81
2018-05-26T05:52:21.414Z,101800.98
2018-05-26T05:54:47.226Z,101803.78
2018-05-26T05:57:13.045Z,101801.19
2018-05-26T05:59:38.952Z,101800.77
2018-05-26T06:02:04.798Z,101794.92
2018-05-26T06:04:30.604Z,101800.56
2018-05-26T06:06:56.418Z,101804.05
2018-05-26T06:09:22.232Z,101803.23
2018-05-26T06:11:48.038Z,101800.41
2018-05-26T06:14:13.906Z,101801.12
2018-05-26T06:16:39.761Z,101802.30
2018-05-26T06:19:05.565Z,101806.31
2018-05-26T06:21:31.374Z,101806.22
2018-05-26T06:23:58.068Z,101806.03
2018-05-26T06:26:23.969Z,101809.92
2018-05-26T06:28:49.765Z,101810.71
2018-05-26T06:31:15.577Z,101809.30
2018-05-26T06:33:41.405Z,101803.57
2018-05-26T06:36:07.217Z,101805.11
2018-05-26T06:38:33.070Z,101800.29
2018-05-26T06:40:58.885Z,101812.03
2018-05-26T06:43:24.733Z,101811.16
2018-05-26T06:45:50.548Z,101808.93
2018-05-26T06:48:16.371Z,101807.45
2018-05-26T06:50:42.210Z,101809.47
2018-05-26T06:53:08.016Z,101803.17
2018-05-26T06:55:33.821Z,101802.84
2018-05-26T06:57:59.633Z,101799.61
2018-05-26T07:00:25.453Z,101797.36
2018-05-26T07:02:51.293Z,101796.13
2018-05-26T07:05:17.141Z,101791.72
2018-05-26T07:07:43.048Z,101791.30
2018-05-26T07:10:09.373Z,101793.38
2018-05-26T07:12:35.184Z,101794.35
2018-05-26T07:15:01.012Z,101793.11
2018-05-26T07:17:26.824Z,101791.81
2018-05-26T07:19:52.689Z,101790.69
2018-05-26T07:22:18.500Z,101784.67
2018-05-26T07:24:44.366Z,101785.30
2018-05-26T07:27:10.200Z,101786.91
2018-05-26T07:29:36.014Z,101789.47
2018-05-26T07:32:01.875Z,101795.61
2018-05-26T07:34:27.725Z,101793.02
2018-05-26T07:36:53.537Z,101789.67
2018-05-26T07:39:19.397Z,101788.72
2018-05-26T07:41:45.208Z,101791.84
2018-05-26T07:44:11.053Z,101797.16
2018-05-26T07:46:36.862Z,101797.27
2018-05-26T07:49:02.732Z,101789.95
2018-05-26T07:51:28.568Z,101789.32
2018-05-26T07:53:54.373Z,101792.24
2018-05-26T07:56:20.221Z,101785.49
2018-05-26T07:58:46.039Z,101787.03
2018-05-26T08:01:11.962Z,101784.86
2018-05-26T08:03:37.885Z,101788.27
2018-05-26T08:06:03.738Z,101790.86
2018-05-26T08:08:29.553Z,101785.55
2018-05-26T08:10:55.415Z,101787.72
2018-05-26T08:13:21.222Z,101781.42
2018-05-26T08:15:47.069Z,101784.05
2018-05-26T08:18:12.877Z,101780.86
2018-05-26T08:20:38.728Z,101785.00
2018-05-26T08:23:04.543Z,101783.84
2018-05-26T08:25:30.353Z,101784.89
2018-05-26T08:27:56.166Z,101782.90
2018-05-26T08:30:22.000Z,101785.69
2018-05-26T08:32:47.812Z,101785.56
2018-05-26T08:35:13.613Z,101788.00
2018-05-26T08:37:39.427Z,101790.66
2018-05-26T08:40:05.233Z,101792.83
2018-05-26T08:42:31.045Z,101795.64
2018-05-26T08:44:56.855Z,101790.78
2018-05-26T08:47:22.666Z,101791.72
2018-05-26T08:49:48.473Z,101789.13
2018-05-26T08:52:14.328Z,101789.91
2018-05-26T08:54:40.137Z,101795.70
2018-05-26T08:57:05.950Z,101799.39
2018-05-26T08:59:31.758Z,101797.64
2018-05-26T09:01:57.561Z,101795.28
2018-05-26T09:04:23.364Z,101798.48
2018-05-26T09:06:49.172Z,101797.09
2018-05-26T09:09:14.981Z,101803.07
2018-05-26T09:11:41.573Z,101797.21
2018-05-26T09:14:07.385Z,101794.86
2018-05-26T09:16:33.362Z,101793.44
2018-05-26T09:18:59.177Z,101794.08
2018-05-26T09:21:24.990Z,101785.20
2018-05-26T09:23:50.832Z,101791.42
2018-05-26T09:26:16.712Z,101780.03
2018-05-26T09:28:42.567Z,101785.75
2018-05-26T09:31:08.381Z,101781.16
2018-05-26T09:33:34.191Z,101785.56
2018-05-26T09:36:00.034Z,101785.56
2018-05-26T09:38:25.888Z,101788.34
2018-05-26T09:40:52.275Z,101780.93
2018-05-26T09:43:18.093Z,101783.25
2018-05-26T09:45:43.905Z,101778.98
2018-05-26T09:48:09.747Z,101777.75
2018-05-26T09:50:35.557Z,101781.51
2018-05-26T09:53:01.365Z,101768.78
2018-05-26T09:55:27.213Z,101770.11
2018-05-26T09:57:53.016Z,101769.78
2018-05-26T10:00:18.837Z,101764.87
2018-05-26T10:02:44.688Z,101759.63
2018-05-26T10:05:10.498Z,101755.09
2018-05-26T10:07:36.305Z,101752.86
2018-05-26T10:10:02.121Z,101749.29
2018-05-26T10:12:27.970Z,101749.62
2018-05-26T10:14:53.826Z,101749.91
2018-05-26T10:17:19.635Z,101749.36
2018-05-26T10:19:45.481Z,101747.61
2018-05-26T10:22:11.289Z,101754.38
2018-05-26T10:24:37.100Z,101756.41
2018-05-26T10:27:02.906Z,101754.59
2018-05-26T10:29:28.713Z,101750.52
2018-05-26T10:31:54.521Z,101750.16
2018-05-26T10:34:20.351Z,101746.05
2018-05-26T10:36:46.169Z,101749.36
2018-05-26T10:39:11.972Z,101748.36
2018-05-26T10:41:37.786Z,101740.00
2018-05-26T10:44:03.598Z,101746.47
2018-05-26T10:46:29.413Z,101748.52
2018-05-26T10:48:55.220Z,101746.05
2018-05-26T10:51:21.025Z,101755.50
2018-05-26T10:53:46.939Z,101750.39
2018-05-26T10:56:12.742Z,101748.31
2018-05-26T10:58:38.558Z,101751.23
2018-05-26T11:01:04.411Z,101743.33
2018-05-26T11:03:30.218Z,101738.45
2018-05-26T11:05:56.143Z,101747.09
2018-05-26T11:08:21.955Z,101740.34
2018-05-26T11:10:47.813Z,101739.00
2018-05-26T11:13:13.621Z,101738.25
2018-05-26T11:15:39.441Z,101738.31
2018-05-26T11:18:05.362Z,101739.55
2018-05-26T11:20:31.107Z,101733.62
2018-05-26T11:22:56.969Z,101733.02
2018-05-26T11:25:23.522Z,101736.90
2018-05-26T11:27:49.381Z,101729.39
2018-05-26T11:30:15.185Z,101729.58
2018-05-26T11:32:41.045Z,101728.80
2018-05-26T11:35:06.854Z,101730.30
2018-05-26T11:37:32.662Z,101727.89
2018-05-26T11:39:58.504Z,101731.75
2018-05-26T11:42:24.312Z,101723.20
2018-05-26T11:44:50.161Z,101729.64
2018-05-26T11:47:15.967Z,101727.95
2018-05-26T11:49:41.813Z,101724.01
2018-05-26T11:52:08.458Z,101723.30
2018-05-26T11:54:34.318Z,101721.91
2018-05-26T11:57:00.136Z,101722.45
2018-05-26T11:59:26.914Z,101720.64
2018-05-26T12:01:52.810Z,101705.63
2018-05-26T12:04:18.802Z,101715.81
2018-05-26T12:06:44.605Z,101716.46
2018-05-26T12:09:10.440Z,101713.03
2018-05-26T12:11:36.288Z,101722.75
2018-05-26T12:14:02.645Z,101714.42
2018-05-26T12:16:28.452Z,101715.03
2018-05-26T12:18:54.265Z,101715.68
2018-05-26T12:21:20.896Z,101717.20
2018-05-26T12:23:46.704Z,101713.71
2018-05-26T12:26:12.609Z,101700.18
2018-05-26T12:28:38.417Z,101700.54
2018-05-26T12:31:04.220Z,101698.98
2018-05-26T12:33:30.035Z,101701.09
2018-05-26T12:35:55.943Z,101697.95
2018-05-26T12:38:21.761Z,101699.54
2018-05-26T12:40:47.573Z,101693.28
2018-05-26T12:43:13.380Z,101694.75
2018-05-26T12:45:39.933Z,101697.11
2018-05-26T12:48:05.740Z,101689.93
2018-05-26T12:50:31.548Z,101691.86
2018-05-26T12:52:57.485Z,101688.11
2018-05-26T12:55:23.337Z,101686.42
2018-05-26T12:57:49.145Z,101688.85
2018-05-26T13:00:14.983Z,101685.94
2018-05-26T13:02:40.800Z,101679.43
2018-05-26T13:05:06.657Z,101670.79
2018-05-26T13:07:32.465Z,101669.30
2018-05-26T13:09:58.314Z,101672.19
2018-05-26T13:12:24.127Z,101666.46
2018-05-26T13:14:49.972Z,101662.19
2018-05-26T13:17:15.776Z,101657.30
2018-05-26T13:19:41.635Z,101665.20
2018-05-26T13:22:07.451Z,101662.00
2018-05-26T13:24:33.291Z,101658.80
2018-05-26T13:26:59.144Z,101651.94
2018-05-26T13:29:24.976Z,101659.21
2018-05-26T13:31:50.882Z,101658.44
2018-05-26T13:34:19.349Z,101655.00
2018-05-26T13:36:45.276Z,101655.78
2018-05-26T13:39:11.085Z,101655.98
2018-05-26T13:41:36.923Z,101653.84
2018-05-26T13:44:02.780Z,101654.33
2018-05-26T13:46:28.584Z,101646.02
2018-05-26T13:48:54.400Z,101643.97
2018-05-26T13:51:20.240Z,101646.42
2018-05-26T13:53:46.185Z,101631.55
2018-05-26T13:56:12.145Z,101629.90
2018-05-26T13:58:37.952Z,101628.64
2018-05-26T14:01:03.757Z,101622.69
2018-05-26T14:03:29.565Z,101625.82
2018-05-26T14:05:55.495Z,101621.84
2018-05-26T14:08:21.337Z,101628.28
2018-05-26T14:10:47.157Z,101619.25
2018-05-26T14:13:12.978Z,101620.67
2018-05-26T14:15:38.833Z,101615.38
2018-05-26T14:18:04.648Z,101619.48
2018-05-26T14:20:30.456Z,101619.13
2018-05-26T14:22:56.361Z,101613.69
2018-05-26T14:25:22.273Z,101617.51
2018-05-26T14:27:48.081Z,101617.38
2018-05-26T14:30:13.985Z,101616.70
2018-05-26T14:32:39.789Z,101613.13
2018-05-26T14:35:05.590Z,101620.80
2018-05-26T14:37:31.400Z,101617.02
2018-05-26T14:39:57.295Z,101618.22
2018-05-26T14:42:23.096Z,101609.58
2018-05-26T14:44:48.941Z,101615.49
2018-05-26T14:47:14.809Z,101612.84
2018-05-26T14:49:40.616Z,101612.34
2018-05-26T14:52:06.418Z,101608.64
2018-05-26T14:54:32.394Z,101609.22
2018-05-26T14:56:58.204Z,101603.98
2018-05-26T14:59:24.009Z,101605.67
2018-05-26T15:01:49.848Z,101602.17
2018-05-26T15:04:15.661Z,101605.37
2018-05-26T15:06:41.470Z,101611.16
2018-05-26T15:09:07.979Z,101615.01
2018-05-26T15:11:34.241Z,101623.48
2018-05-26T15:14:00.053Z,101626.53
2018-05-26T15:16:27.018Z,101626.95
2018-05-26T15:18:52.924Z,101631.34
2018-05-26T15:21:18.908Z,101630.02
2018-05-26T15:23:44.708Z,101624.39
2018-05-26T15:26:10.518Z,101624.84
2018-05-26T15:28:36.477Z,101622.26
2018-05-26T15:31:02.396Z,101623.74
2018-05-26T15:33:28.200Z,101625.42
2018-05-26T15:35:54.004Z,101621.98
2018-05-26T15:38:19.841Z,101624.92
2018-05-26T15:40:45.648Z,101620.19
2018-05-26T15:43:11.485Z,101620.45
2018-05-26T15:45:37.288Z,101617.38
2018-05-26T15:48:03.120Z,101624.30
2018-05-26T15:50:28.929Z,101623.03
2018-05-26T15:52:54.738Z,101618.09
2018-05-26T15:55:20.543Z,101619.19
2018-05-26T15:57:46.387Z,101619.61
2018-05-26T16:00:12.201Z,101613.63
2018-05-26T16:02:38.005Z,101614.17
2018-05-26T16:05:03.809Z,101614.89
2018-05-26T16:07:29.624Z,101623.10
2018-05-26T16:09:55.484Z,101619.61
2018-05-26T16:12:21.293Z,101625.42
2018-05-26T16:14:47.141Z,101626.59
2018-05-26T16:17:13.882Z,101624.84
2018-05-26T16:19:39.684Z,101624.03
2018-05-26T16:22:05.490Z,101622.48
2018-05-26T16:24:31.293Z,101634.09
2018-05-26T16:26:57.145Z,101632.39
2018-05-26T16:29:22.986Z,101637.50
2018-05-26T16:31:48.836Z,101634.97
2018-05-26T16:34:14.681Z,101633.16
2018-05-26T16:36:40.558Z,101625.71
2018-05-26T16:39:06.473Z,101638.94
2018-05-26T16:41:32.281Z,101636.94
2018-05-26T16:43:58.143Z,101636.64
2018-05-26T16:46:23.956Z,101636.09
2018-05-26T16:48:49.765Z,101635.25
2018-05-26T16:51:15.576Z,101646.70
2018-05-26T16:53:41.429Z,101637.91
2018-05-26T16:56:07.274Z,101643.57
2018-05-26T16:58:33.180Z,101648.23
2018-05-26T17:01:00.414Z,101646.16
2018-05-26T17:03:26.221Z,101643.86
2018-05-26T17:05:52.025Z,101638.61
2018-05-26T17:08:17.832Z,101638.19
2018-05-26T17:10:43.644Z,101636.39
2018-05-26T17:13:09.479Z,101639.30
2018-05-26T17:15:35.369Z,101635.12
2018-05-26T17:18:01.173Z,101640.84
2018-05-26T17:20:27.024Z,101635.88
2018-05-26T17:22:52.829Z,101641.11
2018-05-26T17:25:18.686Z,101637.56
2018-05-26T17:27:44.490Z,101645.80
2018-05-26T17:30:10.293Z,101645.31
2018-05-26T17:32:36.097Z,101649.98
2018-05-26T17:35:01.902Z,101645.74
2018-05-26T17:37:27.704Z,101648.58
2018-05-26T17:39:53.509Z,101644.13
2018-05-26T17:42:19.357Z,101644.35
2018-05-26T17:44:45.205Z,101649.91
2018-05-26T17:47:11.200Z,101641.97
2018-05-26T17:49:37.090Z,101650.48
2018-05-26T17:52:02.917Z,101643.91
2018-05-26T17:54:28.862Z,101649.15
2018-05-26T17:56:55.746Z,101645.66
2018-05-26T17:59:22.028Z,101650.47
2018-05-26T18:01:47.861Z,101647.69
2018-05-26T18:04:17.985Z,101650.47
2018-05-26T18:06:43.975Z,101647.26
2018-05-26T18:09:13.104Z,101654.86
2018-05-26T18:11:40.455Z,101654.80
2018-05-26T18:14:06.301Z,101658.02
2018-05-26T18:16:32.167Z,101662.39
2018-05-26T18:18:57.977Z,101661.83
2018-05-26T18:21:23.781Z,101660.53
2018-05-26T18:23:50.039Z,101661.83
2018-05-26T18:26:15.872Z,101665.42
2018-05-26T18:28:42.584Z,101670.48
2018-05-26T18:31:17.061Z,101668.89
2018-05-26T18:33:43.543Z,101669.45
2018-05-26T18:36:09.365Z,101672.09
2018-05-26T18:38:35.168Z,101683.69
2018-05-26T18:41:00.973Z,101684.47
2018-05-26T18:43:26.780Z,101692.02
2018-05-26T18:45:52.589Z,101688.64
2018-05-26T18:48:18.437Z,101686.37
2018-05-26T18:50:44.241Z,101681.55
2018-05-26T18:53:10.045Z,101690.08
2018-05-26T18:55:35.849Z,101682.41
2018-05-26T18:58:01.657Z,101686.78
2018-05-26T19:00:27.467Z,101684.00
2018-05-26T19:02:53.292Z,101693.20
2018-05-26T19:05:19.101Z,101688.44
2018-05-26T19:07:45.009Z,101695.30
2018-05-26T19:10:10.819Z,101692.71
2018-05-26T19:12:36.617Z,101696.14
2018-05-26T19:15:02.423Z,101704.17
2018-05-26T19:17:28.318Z,101708.58
2018-05-26T19:19:54.157Z,101712.98
2018-05-26T19:22:19.965Z,101726.52
2018-05-26T19:24:45.776Z,101718.22
2018-05-26T19:27:11.621Z,101727.09
2018-05-26T19:29:37.425Z,101720.81
2018-05-26T19:32:03.262Z,101731.50
2018-05-26T19:34:29.109Z,101728.84
2018-05-26T19:36:54.920Z,101742.67
2018-05-26T19:39:20.793Z,101737.00
2018-05-26T19:41:46.600Z,101738.68
2018-05-26T19:44:12.441Z,101729.69
2018-05-26T19:46:38.301Z,101731.01
2018-05-26T19:49:04.117Z,101741.63
2018-05-26T19:51:30.054Z,101732.40
2018-05-26T19:53:55.865Z,101727.09
2018-05-26T19:56:21.753Z,101729.33
2018-05-26T19:58:47.565Z,101725.05
2018-05-26T20:01:13.414Z,101726.89
2018-05-26T20:03:39.273Z,101728.00
2018-05-26T20:06:05.147Z,101716.25
2018-05-26T20:08:30.981Z,101713.30
2018-05-26T20:10:56.784Z,101715.66
2018-05-26T20:13:22.633Z,101713.72
2018-05-26T20:15:48.633Z,101713.01
2018-05-26T20:18:14.482Z,101716.99
2018-05-26T20:20:40.292Z,101712.20
2018-05-26T20:23:06.148Z,101711.42
2018-05-26T20:25:31.951Z,101712.20
2018-05-26T20:27:58.392Z,101709.55
2018-05-26T20:30:24.203Z,101706.95
2018-05-26T20:32:50.005Z,101703.33
2018-05-26T20:35:15.813Z,101711.97
2018-05-26T20:37:41.678Z,101708.51
2018-05-26T20:40:07.497Z,101711.62
2018-05-26T20:42:33.349Z,101710.71
2018-05-26T20:44:59.159Z,101710.03
2018-05-26T20:47:24.969Z,101710.74
2018-05-26T20:49:50.792Z,101713.95
2018-05-26T20:52:16.638Z,101714.70
2018-05-26T20:54:42.443Z,101708.70
2018-05-26T20:57:08.245Z,101704.30
2018-05-26T20:59:34.048Z,101701.16
2018-05-26T21:01:59.852Z,101707.86
2018-05-26T21:04:25.689Z,101706.59
2018-05-26T21:06:51.519Z,101711.36
2018-05-26T21:09:17.396Z,101703.52
2018-05-26T21:11:43.249Z,101707.50
2018-05-26T21:14:09.061Z,101713.75
2018-05-26T21:16:34.888Z,101713.75
2018-05-26T21:19:00.737Z,101713.75
2018-05-26T21:21:26.545Z,101710.74
2018-05-26T21:23:52.348Z,101711.72
2018-05-26T21:26:18.157Z,101713.04
2018-05-26T21:28:43.961Z,101713.95
2018-05-26T21:31:09.764Z,101715.27
2018-05-26T21:33:35.610Z,101724.56
2018-05-26T21:36:01.422Z,101727.29
2018-05-26T21:38:27.229Z,101724.31
2018-05-26T21:40:53.038Z,101730.95
2018-05-26T21:43:18.966Z,101725.70
2018-05-26T21:45:44.777Z,101725.21
2018-05-26T21:48:10.580Z,101720.23
2018-05-26T21:50:36.392Z,101721.98
2018-05-26T21:53:02.210Z,101721.14
2018-05-26T21:55:28.262Z,101726.55
2018-05-26T21:57:54.078Z,101727.51
2018-05-26T22:00:19.900Z,101723.72
2018-05-26T22:02:45.744Z,101726.38
2018-05-26T22:05:11.553Z,101723.72
2018-05-26T22:07:37.517Z,101721.52
2018-05-26T22:10:03.324Z,101718.87
2018-05-26T22:12:29.173Z,101718.87
2018-05-26T22:14:54.977Z,101721.58
2018-05-26T22:17:20.785Z,101724.23
2018-05-26T22:19:46.602Z,101720.45
2018-05-26T22:22:12.414Z,101720.74
2018-05-26T22:24:38.228Z,101717.38
2018-05-26T22:27:04.124Z,101719.22
2018-05-26T22:29:29.982Z,101716.11
2018-05-26T22:31:55.790Z,101720.12
2018-05-26T22:34:21.596Z,101719.28
2018-05-26T22:36:47.572Z,101722.00
2018-05-26T22:39:13.393Z,101725.27
2018-05-26T22:41:39.201Z,101723.81
2018-05-26T22:44:05.069Z,101722.13
2018-05-26T22:46:30.889Z,101714.68
2018-05-26T22:48:56.702Z,101715.55
2018-05-26T22:51:22.589Z,101719.56
2018-05-26T22:53:48.398Z,101717.47
2018-05-26T22:56:14.245Z,101711.86
2018-05-26T22:58:40.050Z,101710.41
2018-05-26T23:01:05.912Z,101708.17
2018-05-26T23:03:31.754Z,101712.34
2018-05-26T23:05:57.606Z,101713.67
2018-05-26T23:08:23.581Z,101719.34
2018-05-26T23:10:49.421Z,101717.69
2018-05-26T23:13:15.233Z,101709.20
2018-05-26T23:15:41.045Z,101706.48
2018-05-26T23:18:06.852Z,101707.81
2018-05-26T23:20:32.657Z,101700.34
2018-05-26T23:22:58.457Z,101699.50
2018-05-26T23:25:24.266Z,101699.56
2018-05-26T23:27:50.076Z,101702.64
2018-05-26T23:30:15.884Z,101696.94
2018-05-26T23:32:41.689Z,101697.06
2018-05-26T23:35:07.501Z,101696.94
2018-05-26T23:37:33.314Z,101699.72
2018-05-26T23:39:59.130Z,101701.89
2018-05-26T23:42:24.964Z,101699.72
2018-05-26T23:44:50.776Z,101706.84
2018-05-26T23:47:16.621Z,101704.61
2018-05-26T23:49:42.424Z,101704.73
2018-05-26T23:52:08.273Z,101703.34
2018-05-26T23:54:34.089Z,101698.04
2018-05-26T23:56:59.936Z,101701.11
2018-05-26T23:59:25.776Z,101700.76
